createdAt,value
2018-09-26T00:00:40.887Z,103110.38
2018-09-26T00:03:19.344Z,103109.01
2018-09-26T00:05:49.939Z,103095.81
2018-09-26T00:08:20.146Z,103098.02
2018-09-26T00:10:50.336Z,103104.10
2018-09-26T00:13:20.472Z,103109.34
2018-09-26T00:15:50.717Z,103105.45
2018-09-26T00:18:20.887Z,103104.95
2018-09-26T00:20:50.964Z,103106.22
2018-09-26T00:23:21.103Z,103100.11
2018-09-26T00:25:51.301Z,103102.69
2018-09-26T00:28:21.386Z,103093.48
2018-09-26T00:30:51.614Z,103093.48
2018-09-26T00:33:21.881Z,103090.50
2018-09-26T00:35:52.018Z,103095.70
2018-09-26T00:38:22.254Z,103096.98
2018-09-26T00:40:52.391Z,103094.77
2018-09-26T00:43:22.507Z,103093.45
2018-09-26T00:45:52.773Z,103075.13
2018-09-26T00:48:22.946Z,103080.36
2018-09-26T00:50:53.107Z,103066.49
2018-09-26T00:53:23.304Z,103058.66
2018-09-26T00:55:53.421Z,103051.37
2018-09-26T00:58:23.569Z,103042.70
2018-09-26T01:00:53.709Z,103041.95
2018-09-26T01:03:23.830Z,103044.56
2018-09-26T01:05:53.905Z,103037.58
2018-09-26T01:08:24.057Z,103033.61
2018-09-26T01:10:54.203Z,103030.13
2018-09-26T01:13:24.431Z,103030.09
2018-09-26T01:15:54.561Z,103040.95
2018-09-26T01:18:24.716Z,103045.78
2018-09-26T01:20:54.944Z,103043.98
2018-09-26T01:23:25.159Z,103044.76
2018-09-26T01:25:55.391Z,103044.26
2018-09-26T01:28:25.540Z,103044.26
2018-09-26T01:30:55.577Z,103040.73
2018-09-26T01:33:25.702Z,103029.76
2018-09-26T01:35:55.911Z,103022.27
2018-09-26T01:38:26.034Z,103025.70
2018-09-26T01:40:56.173Z,103019.08
2018-09-26T01:43:26.338Z,103017.73
2018-09-26T01:45:56.876Z,103027.38
2018-09-26T01:48:26.958Z,103019.05
2018-09-26T01:50:57.055Z,103020.30
2018-09-26T01:53:27.208Z,103018.55
2018-09-26T01:55:57.329Z,103015.02
2018-09-26T01:58:27.441Z,103008.95
2018-09-26T02:00:57.584Z,103004.11
2018-09-26T02:03:27.654Z,103003.23
2018-09-26T02:06:04.359Z,103009.78
2018-09-26T02:08:34.438Z,103017.13
2018-09-26T02:11:04.460Z,103017.17
2018-09-26T02:13:34.669Z,103019.79
2018-09-26T02:16:04.808Z,103017.57
2018-09-26T02:18:34.920Z,103007.97
2018-09-26T02:21:05.034Z,103009.25
2018-09-26T02:23:35.271Z,103012.41
2018-09-26T02:26:05.421Z,103007.30
2018-09-26T02:28:35.568Z,103007.23
2018-09-26T02:31:05.736Z,103001.97
2018-09-26T02:33:35.810Z,102985.34
2018-09-26T02:36:05.889Z,102971.83
2018-09-26T02:38:36.015Z,102970.45
2018-09-26T02:41:06.152Z,102977.46
2018-09-26T02:43:36.293Z,102994.48
2018-09-26T02:46:06.449Z,102990.95
2018-09-26T02:48:41.688Z,102990.05
2018-09-26T02:51:11.846Z,102995.66
2018-09-26T02:53:42.013Z,102997.77
2018-09-26T02:56:12.223Z,102998.23
2018-09-26T02:58:42.376Z,102989.04
2018-09-26T03:01:12.508Z,102983.70
2018-09-26T03:03:42.598Z,102985.87
2018-09-26T03:06:12.772Z,102984.10
2018-09-26T03:08:42.976Z,102986.28
2018-09-26T03:11:13.112Z,102979.27
2018-09-26T03:13:43.203Z,102972.69
2018-09-26T03:16:13.311Z,102977.09
2018-09-26T03:18:43.778Z,102974.91
2018-09-26T03:21:13.938Z,102961.86
2018-09-26T03:23:44.069Z,102957.09
2018-09-26T03:26:14.270Z,102949.27
2018-09-26T03:28:44.415Z,102955.41
2018-09-26T03:31:14.562Z,102954.64
2018-09-26T03:33:44.704Z,102966.45
2018-09-26T03:36:14.862Z,102961.25
2018-09-26T03:38:44.950Z,102969.20
2018-09-26T03:41:15.078Z,102970.91
2018-09-26T03:43:45.207Z,102981.55
2018-09-26T03:46:15.350Z,102985.45
2018-09-26T03:48:45.486Z,102969.36
2018-09-26T03:51:15.702Z,102978.50
2018-09-26T03:53:45.853Z,102964.50
2018-09-26T03:56:16.004Z,102958.45
2018-09-26T03:58:46.227Z,102951.03
2018-09-26T04:01:16.497Z,102953.67
2018-09-26T04:03:46.640Z,102958.05
2018-09-26T04:06:17.811Z,102962.00
2018-09-26T04:08:48.023Z,102960.66
2018-09-26T04:11:18.167Z,102946.32
2018-09-26T04:13:48.326Z,102943.17
2018-09-26T04:16:18.477Z,102942.74
2018-09-26T04:18:48.618Z,102936.16
2018-09-26T04:21:18.730Z,102933.98
2018-09-26T04:23:48.930Z,102932.23
2018-09-26T04:26:19.336Z,102944.45
2018-09-26T04:28:49.510Z,102947.98
2018-09-26T04:31:19.619Z,102934.88
2018-09-26T04:33:49.904Z,102924.41
2018-09-26T04:36:20.072Z,102919.14
2018-09-26T04:38:50.206Z,102917.42
2018-09-26T04:41:20.334Z,102927.91
2018-09-26T04:43:50.584Z,102939.63
2018-09-26T04:46:20.761Z,102947.80
2018-09-26T04:48:50.885Z,102949.44
2018-09-26T04:51:21.003Z,102942.36
2018-09-26T04:53:51.098Z,102940.55
2018-09-26T04:56:21.183Z,102942.36
2018-09-26T04:58:51.326Z,102949.71
2018-09-26T05:01:21.555Z,102956.63
2018-09-26T05:03:51.723Z,102962.63
2018-09-26T05:06:21.788Z,102956.02
2018-09-26T05:08:52.343Z,102946.02
2018-09-26T05:11:22.436Z,102947.36
2018-09-26T05:13:52.582Z,102948.20
2018-09-26T05:16:22.696Z,102945.55
2018-09-26T05:18:52.842Z,102938.09
2018-09-26T05:21:22.955Z,102946.75
2018-09-26T05:23:53.205Z,102949.33
2018-09-26T05:26:23.287Z,102949.80
2018-09-26T05:28:53.395Z,102941.63
2018-09-26T05:31:23.653Z,102947.66
2018-09-26T05:33:53.794Z,102946.42
2018-09-26T05:36:23.882Z,102936.51
2018-09-26T05:38:54.010Z,102941.14
2018-09-26T05:41:24.119Z,102938.23
2018-09-26T05:43:54.494Z,102941.84
2018-09-26T05:46:24.564Z,102934.58
2018-09-26T05:48:54.714Z,102932.90
2018-09-26T05:51:24.946Z,102929.50
2018-09-26T05:53:55.251Z,102921.72
2018-09-26T05:56:25.912Z,102918.03
2018-09-26T05:58:56.100Z,102914.14
2018-09-26T06:01:26.267Z,102916.36
2018-09-26T06:03:57.567Z,102917.33
2018-09-26T06:06:27.661Z,102924.39
2018-09-26T06:08:57.788Z,102921.85
2018-09-26T06:11:27.976Z,102928.05
2018-09-26T06:13:58.223Z,102927.65
2018-09-26T06:16:28.592Z,102932.95
2018-09-26T06:18:58.767Z,102927.31
2018-09-26T06:21:28.915Z,102921.22
2018-09-26T06:23:59.147Z,102922.56
2018-09-26T06:26:29.281Z,102918.23
2018-09-26T06:28:59.461Z,102908.61
2018-09-26T06:31:29.611Z,102917.38
2018-09-26T06:33:59.904Z,102907.69
2018-09-26T06:36:29.995Z,102907.25
2018-09-26T06:39:00.210Z,102897.97
2018-09-26T06:41:30.335Z,102899.13
2018-09-26T06:44:00.530Z,102903.00
2018-09-26T06:46:30.596Z,102910.79
2018-09-26T06:49:00.737Z,102909.72
2018-09-26T06:51:30.874Z,102909.52
2018-09-26T06:54:01.730Z,102914.50
2018-09-26T06:56:31.865Z,102906.49
2018-09-26T06:59:01.992Z,102904.89
2018-09-26T07:01:32.089Z,102908.22
2018-09-26T07:04:02.304Z,102910.08
2018-09-26T07:06:32.540Z,102913.02
2018-09-26T07:09:02.671Z,102907.50
2018-09-26T07:11:32.849Z,102906.80
2018-09-26T07:14:02.986Z,102909.91
2018-09-26T07:16:33.160Z,102909.20
2018-09-26T07:19:03.482Z,102907.59
2018-09-26T07:21:33.600Z,102901.70
2018-09-26T07:24:03.884Z,102907.88
2018-09-26T07:26:34.043Z,102909.41
2018-09-26T07:29:04.218Z,102912.35
2018-09-26T07:31:34.417Z,102913.95
2018-09-26T07:34:04.551Z,102911.00
2018-09-26T07:36:34.682Z,102907.63
2018-09-26T07:39:06.859Z,102909.03
2018-09-26T07:41:37.004Z,102905.63
2018-09-26T07:44:07.389Z,102903.67
2018-09-26T07:46:37.643Z,102911.20
2018-09-26T07:49:07.907Z,102920.63
2018-09-26T07:51:38.011Z,102917.30
2018-09-26T07:54:08.214Z,102917.23
2018-09-26T07:56:38.408Z,102910.32
2018-09-26T07:59:08.707Z,102913.22
2018-09-26T08:01:38.754Z,102901.45
2018-09-26T08:04:09.050Z,102907.17
2018-09-26T08:06:39.222Z,102908.94
2018-09-26T08:09:10.406Z,102904.31
2018-09-26T08:11:40.562Z,102905.27
2018-09-26T08:14:10.723Z,102906.41
2018-09-26T08:16:40.898Z,102900.38
2018-09-26T08:19:11.192Z,102897.16
2018-09-26T08:21:41.353Z,102896.11
2018-09-26T08:24:11.634Z,102893.98
2018-09-26T08:26:41.749Z,102890.27
2018-09-26T08:29:11.999Z,102884.41
2018-09-26T08:31:42.082Z,102881.48
2018-09-26T08:34:12.265Z,102889.00
2018-09-26T08:36:42.381Z,102895.83
2018-09-26T08:39:13.728Z,102895.56
2018-09-26T08:41:43.797Z,102895.69
2018-09-26T08:44:14.016Z,102904.73
2018-09-26T08:46:45.011Z,102893.63
2018-09-26T08:49:15.179Z,102896.66
2018-09-26T08:51:45.404Z,102905.21
2018-09-26T08:54:15.499Z,102901.40
2018-09-26T08:56:45.543Z,102900.20
2018-09-26T08:59:15.692Z,102896.25
2018-09-26T09:01:47.919Z,102900.38
2018-09-26T09:04:19.149Z,102902.08
2018-09-26T09:06:49.331Z,102899.67
2018-09-26T09:09:19.435Z,102907.12
2018-09-26T09:11:49.546Z,102908.13
2018-09-26T09:14:19.643Z,102907.50
2018-09-26T09:16:49.759Z,102906.23
2018-09-26T09:19:19.919Z,102919.69
2018-09-26T09:21:50.048Z,102918.02
2018-09-26T09:24:20.153Z,102916.53
2018-09-26T09:26:50.321Z,102920.19
2018-09-26T09:29:20.496Z,102919.05
2018-09-26T09:31:50.687Z,102914.09
2018-09-26T09:34:20.841Z,102908.53
2018-09-26T09:36:50.954Z,102911.25
2018-09-26T09:39:21.036Z,102903.17
2018-09-26T09:41:51.259Z,102911.20
2018-09-26T09:44:21.436Z,102906.55
2018-09-26T09:46:51.507Z,102911.77
2018-09-26T09:49:21.648Z,102912.20
2018-09-26T09:51:51.763Z,102914.59
2018-09-26T09:54:21.860Z,102907.07
2018-09-26T09:56:51.949Z,102907.03
2018-09-26T09:59:22.076Z,102905.17
2018-09-26T10:01:52.220Z,102899.83
2018-09-26T10:04:25.141Z,102900.20
2018-09-26T10:06:55.245Z,102895.08
2018-09-26T10:09:25.386Z,102898.05
2018-09-26T10:11:55.525Z,102902.45
2018-09-26T10:14:25.694Z,102908.70
2018-09-26T10:16:55.750Z,102898.34
2018-09-26T10:19:26.182Z,102893.19
2018-09-26T10:21:56.266Z,102895.89
2018-09-26T10:24:26.366Z,102889.48
2018-09-26T10:26:56.499Z,102888.81
2018-09-26T10:29:26.590Z,102880.38
2018-09-26T10:31:56.687Z,102883.40
2018-09-26T10:34:26.822Z,102885.55
2018-09-26T10:36:56.975Z,102880.02
2018-09-26T10:39:27.108Z,102877.69
2018-09-26T10:41:57.173Z,102875.29
2018-09-26T10:44:27.279Z,102879.25
2018-09-26T10:46:57.400Z,102868.73
2018-09-26T10:49:27.573Z,102869.62
2018-09-26T10:51:57.728Z,102865.34
2018-09-26T10:54:27.825Z,102853.88
2018-09-26T10:56:58.151Z,102849.88
2018-09-26T10:59:28.407Z,102841.09
2018-09-26T11:01:58.528Z,102845.70
2018-09-26T11:04:28.659Z,102842.84
2018-09-26T11:06:58.708Z,102841.48
2018-09-26T11:09:28.978Z,102836.94
2018-09-26T11:11:59.183Z,102837.41
2018-09-26T11:14:29.336Z,102834.74
2018-09-26T11:16:59.429Z,102833.23
2018-09-26T11:19:29.592Z,102827.73
2018-09-26T11:21:59.689Z,102831.95
2018-09-26T11:24:29.876Z,102825.92
2018-09-26T11:27:00.144Z,102817.62
2018-09-26T11:29:30.318Z,102826.22
2018-09-26T11:32:00.467Z,102816.59
2018-09-26T11:34:30.590Z,102817.28
2018-09-26T11:37:00.704Z,102814.66
2018-09-26T11:39:30.806Z,102817.23
2018-09-26T11:42:00.892Z,102814.84
2018-09-26T11:44:30.994Z,102812.41
2018-09-26T11:47:01.080Z,102807.59
2018-09-26T11:49:31.224Z,102809.45
2018-09-26T11:52:02.365Z,102811.25
2018-09-26T11:54:32.552Z,102809.74
2018-09-26T11:57:02.723Z,102802.69
2018-09-26T11:59:32.979Z,102807.20
2018-09-26T12:02:03.098Z,102803.98
2018-09-26T12:04:33.157Z,102796.43
2018-09-26T12:07:03.322Z,102794.00
2018-09-26T12:09:33.631Z,102788.64
2018-09-26T12:12:03.824Z,102783.38
2018-09-26T12:14:33.971Z,102782.34
2018-09-26T12:17:04.145Z,102778.96
2018-09-26T12:19:34.317Z,102767.68
2018-09-26T12:22:04.544Z,102758.82
2018-09-26T12:24:34.611Z,102768.03
2018-09-26T12:27:04.725Z,102759.11
2018-09-26T12:29:34.858Z,102747.86
2018-09-26T12:32:04.951Z,102749.34
2018-09-26T12:34:35.085Z,102745.15
2018-09-26T12:37:05.205Z,102744.48
2018-09-26T12:39:35.398Z,102742.95
2018-09-26T12:42:08.019Z,102743.34
2018-09-26T12:44:38.384Z,102742.48
2018-09-26T12:47:08.502Z,102736.66
2018-09-26T12:49:38.531Z,102741.84
2018-09-26T12:52:08.760Z,102736.13
2018-09-26T12:54:38.842Z,102740.73
2018-09-26T12:57:08.856Z,102736.13
2018-09-26T12:59:39.106Z,102736.95
2018-09-26T13:02:09.216Z,102730.02
2018-09-26T13:04:39.355Z,102722.66
2018-09-26T13:07:09.516Z,102714.05
2018-09-26T13:09:39.570Z,102709.70
2018-09-26T13:12:09.664Z,102708.48
2018-09-26T13:14:39.780Z,102710.53
2018-09-26T13:17:09.961Z,102709.30
2018-09-26T13:19:40.112Z,102708.08
2018-09-26T13:22:10.180Z,102711.59
2018-09-26T13:24:40.345Z,102701.28
2018-09-26T13:27:10.514Z,102698.13
2018-09-26T13:29:40.572Z,102694.49
2018-09-26T13:32:10.730Z,102693.78
2018-09-26T13:34:40.815Z,102691.22
2018-09-26T13:37:10.842Z,102687.17
2018-09-26T13:39:40.922Z,102693.02
2018-09-26T13:42:11.016Z,102697.66
2018-09-26T13:44:41.097Z,102694.56
2018-09-26T13:47:11.174Z,102692.09
2018-09-26T13:49:41.269Z,102689.46
2018-09-26T13:52:11.452Z,102690.20
2018-09-26T13:54:41.522Z,102685.55
2018-09-26T13:57:11.667Z,102684.00
2018-09-26T13:59:41.792Z,102684.90
2018-09-26T14:02:12.371Z,102681.25
2018-09-26T14:04:42.520Z,102679.23
2018-09-26T14:07:12.553Z,102673.11
2018-09-26T14:09:42.645Z,102666.97
2018-09-26T14:12:12.800Z,102671.09
2018-09-26T14:14:42.944Z,102662.66
2018-09-26T14:17:13.049Z,102651.16
2018-09-26T14:19:43.198Z,102651.27
2018-09-26T14:22:13.328Z,102647.97
2018-09-26T14:24:43.385Z,102646.25
2018-09-26T14:27:13.511Z,102639.05
2018-09-26T14:29:43.585Z,102639.69
2018-09-26T14:32:13.669Z,102639.95
2018-09-26T14:34:43.733Z,102638.45
2018-09-26T14:37:13.793Z,102640.22
2018-09-26T14:39:43.985Z,102632.94
2018-09-26T14:42:14.098Z,102640.02
2018-09-26T14:44:44.209Z,102641.77
2018-09-26T14:47:14.429Z,102632.96
2018-09-26T14:49:44.515Z,102630.44
2018-09-26T14:52:14.641Z,102622.90
2018-09-26T14:54:44.688Z,102633.22
2018-09-26T14:57:14.814Z,102613.37
2018-09-26T14:59:44.922Z,102609.25
2018-09-26T15:02:15.065Z,102608.66
2018-09-26T15:04:45.332Z,102606.94
2018-09-26T15:07:15.428Z,102610.56
2018-09-26T15:09:45.572Z,102612.49
2018-09-26T15:12:15.707Z,102610.08
2018-09-26T15:14:45.896Z,102609.41
2018-09-26T15:17:16.055Z,102606.64
2018-09-26T15:19:46.176Z,102612.67
2018-09-26T15:22:16.242Z,102604.81
2018-09-26T15:24:46.496Z,102613.02
2018-09-26T15:27:16.534Z,102608.03
2018-09-26T15:29:46.755Z,102602.52
2018-09-26T15:32:16.895Z,102606.88
2018-09-26T15:34:47.020Z,102604.46
2018-09-26T15:37:17.094Z,102601.81
2018-09-26T15:39:47.253Z,102595.17
2018-09-26T15:42:17.444Z,102599.92
2018-09-26T15:44:47.542Z,102595.22
2018-09-26T15:47:17.656Z,102598.20
2018-09-26T15:49:47.740Z,102597.37
2018-09-26T15:52:17.912Z,102599.33
2018-09-26T15:54:48.094Z,102600.61
2018-09-26T15:57:18.129Z,102599.56
2018-09-26T15:59:48.320Z,102592.95
2018-09-26T16:02:18.422Z,102599.00
2018-09-26T16:04:48.584Z,102594.88
2018-09-26T16:07:18.656Z,102594.94
2018-09-26T16:09:48.816Z,102589.63
2018-09-26T16:12:18.918Z,102587.73
2018-09-26T16:14:49.027Z,102590.09
2018-09-26T16:17:19.136Z,102593.44
2018-09-26T16:19:49.291Z,102597.83
2018-09-26T16:22:19.450Z,102589.49
2018-09-26T16:24:49.604Z,102584.26
2018-09-26T16:27:19.700Z,102582.99
2018-09-26T16:29:49.932Z,102586.05
2018-09-26T16:32:20.066Z,102590.47
2018-09-26T16:34:50.204Z,102590.39
2018-09-26T16:37:20.376Z,102586.34
2018-09-26T16:39:50.513Z,102590.35
2018-09-26T16:42:20.769Z,102588.20
2018-09-26T16:44:50.874Z,102586.44
2018-09-26T16:47:20.922Z,102588.22
2018-09-26T16:49:51.094Z,102592.09
2018-09-26T16:52:21.259Z,102586.99
2018-09-26T16:54:51.328Z,102588.86
2018-09-26T16:57:21.460Z,102591.78
2018-09-26T16:59:51.687Z,102587.97
2018-09-26T17:02:21.927Z,102594.19
2018-09-26T17:04:52.051Z,102594.70
2018-09-26T17:07:22.226Z,102594.78
2018-09-26T17:09:52.337Z,102594.73
2018-09-26T17:12:22.434Z,102593.44
2018-09-26T17:14:52.583Z,102595.55
2018-09-26T17:17:22.705Z,102600.27
2018-09-26T17:19:52.845Z,102596.41
2018-09-26T17:22:23.221Z,102596.45
2018-09-26T17:24:53.420Z,102595.16
2018-09-26T17:27:23.461Z,102598.22
2018-09-26T17:29:53.608Z,102595.25
2018-09-26T17:32:24.259Z,102592.68
2018-09-26T17:34:54.364Z,102595.34
2018-09-26T17:37:24.471Z,102595.63
2018-09-26T17:39:54.705Z,102592.90
2018-09-26T17:42:24.911Z,102591.36
2018-09-26T17:44:55.090Z,102597.84
2018-09-26T17:47:25.109Z,102600.19
2018-09-26T17:49:55.239Z,102598.27
2018-09-26T17:52:25.477Z,102599.41
2018-09-26T17:54:55.585Z,102604.11
2018-09-26T17:57:25.673Z,102614.58
2018-09-26T17:59:55.808Z,102607.11
2018-09-26T18:02:25.914Z,102605.84
2018-09-26T18:04:56.095Z,102599.03
2018-09-26T18:07:26.209Z,102603.70
2018-09-26T18:09:56.384Z,102600.72
2018-09-26T18:12:26.598Z,102604.98
2018-09-26T18:14:56.875Z,102603.84
2018-09-26T18:17:27.052Z,102609.25
2018-09-26T18:19:57.183Z,102615.95
2018-09-26T18:22:27.313Z,102618.12
2018-09-26T18:24:57.507Z,102617.77
2018-09-26T18:27:27.638Z,102620.95
2018-09-26T18:29:57.902Z,102620.89
2018-09-26T18:32:28.019Z,102624.94
2018-09-26T18:34:58.146Z,102627.36
2018-09-26T18:37:28.354Z,102625.22
2018-09-26T18:39:58.606Z,102629.28
2018-09-26T18:42:28.799Z,102626.02
2018-09-26T18:44:59.034Z,102630.13
2018-09-26T18:47:29.160Z,102629.83
2018-09-26T18:49:59.337Z,102627.34
2018-09-26T18:52:29.537Z,102630.92
2018-09-26T18:54:59.600Z,102625.73
2018-09-26T18:57:29.681Z,102637.81
2018-09-26T18:59:59.822Z,102634.92
2018-09-26T19:02:31.317Z,102640.31
2018-09-26T19:05:02.029Z,102639.98
2018-09-26T19:07:32.101Z,102643.19
2018-09-26T19:10:02.638Z,102641.13
2018-09-26T19:12:32.799Z,102650.94
2018-09-26T19:15:03.194Z,102645.72
2018-09-26T19:17:33.177Z,102644.77
2018-09-26T19:20:03.306Z,102645.66
2018-09-26T19:22:33.414Z,102645.77
2018-09-26T19:25:03.578Z,102643.13
2018-09-26T19:27:33.757Z,102658.06
2018-09-26T19:30:03.859Z,102651.91
2018-09-26T19:32:34.069Z,102655.52
2018-09-26T19:35:04.367Z,102657.41
2018-09-26T19:37:34.612Z,102653.98
2018-09-26T19:40:04.936Z,102661.13
2018-09-26T19:42:35.028Z,102662.05
2018-09-26T19:45:05.205Z,102664.77
2018-09-26T19:47:35.514Z,102665.28
2018-09-26T19:50:05.884Z,102658.22
2018-09-26T19:52:36.088Z,102652.12
2018-09-26T19:55:06.366Z,102654.78
2018-09-26T19:57:36.525Z,102656.58
2018-09-26T20:00:06.997Z,102658.29
2018-09-26T20:02:37.154Z,102663.58
2018-09-26T20:05:07.574Z,102665.88
2018-09-26T20:07:37.639Z,102666.80
2018-09-26T20:10:09.068Z,102658.93
2018-09-26T20:12:39.187Z,102662.55
2018-09-26T20:15:09.865Z,102659.50
2018-09-26T20:17:40.076Z,102656.36
2018-09-26T20:20:10.336Z,102659.05
2018-09-26T20:22:40.420Z,102665.25
2018-09-26T20:25:10.673Z,102664.38
2018-09-26T20:27:40.740Z,102655.62
2018-09-26T20:30:10.897Z,102660.95
2018-09-26T20:32:41.021Z,102662.22
2018-09-26T20:35:11.287Z,102655.38
2018-09-26T20:37:41.416Z,102648.11
2018-09-26T20:40:11.556Z,102653.34
2018-09-26T20:42:42.183Z,102655.30
2018-09-26T20:45:12.359Z,102658.98
2018-09-26T20:47:42.457Z,102661.29
2018-09-26T20:50:12.840Z,102659.19
2018-09-26T20:52:43.008Z,102658.77
2018-09-26T20:55:13.138Z,102659.66
2018-09-26T20:57:43.667Z,102658.86
2018-09-26T21:00:14.119Z,102670.78
2018-09-26T21:02:44.270Z,102665.61
2018-09-26T21:05:14.423Z,102670.48
2018-09-26T21:07:44.547Z,102664.34
2018-09-26T21:10:14.668Z,102676.73
2018-09-26T21:12:44.791Z,102674.50
2018-09-26T21:15:15.558Z,102671.97
2018-09-26T21:17:45.778Z,102672.42
2018-09-26T21:20:17.839Z,102672.89
2018-09-26T21:22:47.963Z,102663.70
2018-09-26T21:25:18.121Z,102661.10
2018-09-26T21:27:48.643Z,102662.02
2018-09-26T21:30:19.362Z,102661.16
2018-09-26T21:32:49.513Z,102665.62
2018-09-26T21:35:20.010Z,102670.94
2018-09-26T21:37:50.592Z,102668.35
2018-09-26T21:40:20.682Z,102669.66
2018-09-26T21:42:50.787Z,102674.08
2018-09-26T21:45:20.991Z,102673.22
2018-09-26T21:47:51.073Z,102669.76
2018-09-26T21:50:21.136Z,102667.53
2018-09-26T21:52:51.176Z,102666.72
2018-09-26T21:55:21.305Z,102667.21
2018-09-26T21:57:51.374Z,102670.72
2018-09-26T22:00:21.537Z,102665.03
2018-09-26T22:02:51.561Z,102663.67
2018-09-26T22:05:21.736Z,102666.72
2018-09-26T22:07:51.846Z,102667.13
2018-09-26T22:10:21.984Z,102667.16
2018-09-26T22:12:52.107Z,102664.53
2018-09-26T22:15:25.904Z,102656.25
2018-09-26T22:17:56.300Z,102651.48
2018-09-26T22:20:26.498Z,102655.89
2018-09-26T22:22:56.665Z,102665.57
2018-09-26T22:25:28.401Z,102655.39
2018-09-26T22:27:59.653Z,102656.71
2018-09-26T22:30:29.799Z,102664.21
2018-09-26T22:33:00.022Z,102661.48
2018-09-26T22:35:30.147Z,102656.20
2018-09-26T22:38:00.257Z,102647.47
2018-09-26T22:40:30.285Z,102648.80
2018-09-26T22:43:00.320Z,102659.80
2018-09-26T22:45:30.437Z,102655.80
2018-09-26T22:48:00.464Z,102652.80
2018-09-26T22:50:30.653Z,102648.44
2018-09-26T22:53:00.760Z,102645.39
2018-09-26T22:55:30.875Z,102647.16
2018-09-26T22:58:00.927Z,102652.92
2018-09-26T23:00:31.065Z,102655.48
2018-09-26T23:03:01.134Z,102651.52
2018-09-26T23:05:31.703Z,102651.52
2018-09-26T23:08:02.272Z,102647.16
2018-09-26T23:10:32.417Z,102650.70
2018-09-26T23:13:02.512Z,102648.59
2018-09-26T23:15:33.449Z,102652.55
2018-09-26T23:18:03.955Z,102646.95
2018-09-26T23:20:34.446Z,102647.39
2018-09-26T23:23:04.663Z,102638.66
2018-09-26T23:25:34.821Z,102636.06
2018-09-26T23:28:05.003Z,102639.64
2018-09-26T23:30:35.103Z,102644.46
2018-09-26T23:33:05.157Z,102647.13
2018-09-26T23:35:35.300Z,102640.55
2018-09-26T23:38:05.443Z,102637.50
2018-09-26T23:40:35.577Z,102632.71
2018-09-26T23:43:05.718Z,102641.06
2018-09-26T23:45:35.876Z,102638.46
2018-09-26T23:48:06.022Z,102635.41
2018-09-26T23:50:36.162Z,102635.44
2018-09-26T23:53:06.219Z,102631.49
2018-09-26T23:55:36.337Z,102631.98
2018-09-26T23:58:06.547Z,102628.02
